Time;durP1;ratioP1;P1;durP2;ratioP2;P2;SDS_P1;SDS_P2;PMS_P1;PMS_P2;Temp;Humidity;BMP_temperature;BMP_pressure;BME280_temperature;BME280_humidity;BME280_pressure;Samples;Min_cycle;Max_cycle;Signal;HPM_P1;HPM_P2
2021/09/10 00:01:39;;;;;;;;;3.00;3.00;;;;;;;;4972947;28;45425;-79
2021/09/10 00:04:04;;;;;;;;;2.00;1.67;;;;;;;;4990339;28;46536;-77
2021/09/10 00:06:30;;;;;;;;;3.00;1.25;;;;;;;;4990555;28;45337;-77
2021/09/10 00:08:55;;;;;;;;;2.25;2.25;;;;;;;;4992553;28;45308;-78
2021/09/10 00:11:21;;;;;;;;;3.00;1.67;;;;;;;;4991371;28;45498;-77
2021/09/10 00:13:46;;;;;;;;;2.50;1.75;;;;;;;;4988948;28;47292;-77
2021/09/10 00:16:11;;;;;;;;;1.67;1.67;;;;;;;;4990616;28;45354;-78
2021/09/10 00:18:36;;;;;;;;;3.00;2.33;;;;;;;;4990608;28;45406;-77
2021/09/10 00:21:01;;;;;;;;;3.00;1.33;;;;;;;;4992276;28;45324;-77
2021/09/10 00:23:27;;;;;;;;;3.67;2.33;;;;;;;;4991096;28;46033;-76
2021/09/10 00:25:52;;;;;;;;;3.00;3.00;;;;;;;;4987727;28;45374;-78
2021/09/10 00:28:17;;;;;;;;;3.00;1.33;;;;;;;;4988445;28;45300;-78
2021/09/10 00:30:42;;;;;;;;;2.67;2.00;;;;;;;;4990111;28;45282;-77
2021/09/10 00:33:08;;;;;;;;;1.00;1.00;;;;;;;;4990162;28;46878;-77
2021/09/10 00:35:33;;;;;;;;;5.25;2.50;;;;;;;;4991762;28;45699;-77
2021/09/10 00:37:58;;;;;;;;;3.00;2.00;;;;;;;;4989855;28;45501;-77
2021/09/10 00:40:23;;;;;;;;;2.75;2.75;;;;;;;;4972504;28;45451;-77
2021/09/10 00:42:48;;;;;;;;;3.00;2.00;;;;;;;;4989999;28;47334;-76
2021/09/10 00:45:13;;;;;;;;;1.75;1.75;;;;;;;;4972397;28;45422;-77
2021/09/10 00:47:40;;;;;;;;;2.75;2.75;;;;;;;;4992274;28;45497;-77
2021/09/10 00:50:05;;;;;;;;;3.00;1.50;;;;;;;;4990442;28;45398;-77
2021/09/10 00:52:30;;;;;;;;;4.00;3.75;;;;;;;;4991545;28;45520;-77
2021/09/10 00:54:55;;;;;;;;;2.25;2.25;;;;;;;;4993163;28;45444;-77
2021/09/10 00:57:21;;;;;;;;;4.00;2.00;;;;;;;;4992677;28;45503;-77
2021/09/10 00:59:46;;;;;;;;;2.00;2.00;;;;;;;;4994898;28;45510;-76
2021/09/10 01:02:12;;;;;;;;;2.75;2.50;;;;;;;;4992752;28;45888;-77
2021/09/10 01:04:38;;;;;;;;;3.00;3.00;;;;;;;;4992718;28;45352;-77
2021/09/10 01:07:04;;;;;;;;;2.50;1.50;;;;;;;;4992657;28;45438;-77
2021/09/10 01:09:29;;;;;;;;;3.50;3.50;;;;;;;;4992823;28;45398;-76
2021/09/10 01:11:56;;;;;;;;;2.00;2.00;;;;;;;;4976771;28;47256;-77
2021/09/10 01:14:21;;;;;;;;;3.75;2.50;;;;;;;;4991600;28;45527;-77
2021/09/10 01:16:47;;;;;;;;;4.00;4.00;;;;;;;;4992298;28;45514;-77
2021/09/10 01:19:29;;;;;;;;;2.00;2.00;;;;;;;;4992696;28;45434;-79
2021/09/10 01:21:56;;;;;;;;;4.00;3.50;;;;;;;;4974754;28;47267;-77
2021/09/10 01:24:25;;;;;;;;;4.00;3.00;;;;;;;;4992743;28;45407;-77
2021/09/10 01:26:50;;;;;;;;;3.75;3.75;;;;;;;;4994356;28;45449;-77
2021/09/10 01:29:15;;;;;;;;;3.00;3.00;;;;;;;;4990852;28;45576;-77
2021/09/10 01:31:41;;;;;;;;;5.25;2.75;;;;;;;;4991033;28;45938;-77
2021/09/10 01:34:06;;;;;;;;;3.50;2.75;;;;;;;;4992435;28;45212;-77
2021/09/10 01:36:31;;;;;;;;;3.00;3.00;;;;;;;;4975120;28;45604;-77
2021/09/10 01:38:56;;;;;;;;;2.00;2.00;;;;;;;;4994116;28;45271;-78
2021/09/10 01:41:22;;;;;;;;;2.75;2.75;;;;;;;;4992636;28;45338;-77
2021/09/10 01:43:47;;;;;;;;;1.00;1.00;;;;;;;;4992361;28;45379;-78
2021/09/10 01:46:12;;;;;;;;;3.50;3.50;;;;;;;;4992343;28;45527;-77
2021/09/10 01:48:37;;;;;;;;;3.00;3.00;;;;;;;;4992263;28;45279;-77
2021/09/10 01:51:02;;;;;;;;;3.50;2.00;;;;;;;;4993559;28;45663;-77
2021/09/10 01:53:32;;;;;;;;;2.50;2.50;;;;;;;;4993368;28;45750;-78
2021/09/10 01:55:57;;;;;;;;;5.75;2.00;;;;;;;;4992058;28;45520;-77
2021/09/10 01:58:22;;;;;;;;;2.00;2.00;;;;;;;;4974272;28;45444;-76
2021/09/10 02:00:48;;;;;;;;;0.00;0.00;;;;;;;;4991328;28;46043;-76
2021/09/10 02:03:13;;;;;;;;;4.00;2.75;;;;;;;;4992263;28;45339;-77
2021/09/10 02:05:38;;;;;;;;;3.00;2.00;;;;;;;;4994296;28;45387;-76
2021/09/10 02:08:04;;;;;;;;;3.75;2.00;;;;;;;;4990659;28;45376;-77
2021/09/10 02:10:29;;;;;;;;;3.00;3.00;;;;;;;;4990197;28;45509;-77
2021/09/10 02:12:54;;;;;;;;;4.25;3.00;;;;;;;;4991827;28;45470;-77
2021/09/10 02:15:19;;;;;;;;;5.00;2.00;;;;;;;;4991946;28;45502;-76
2021/09/10 02:17:44;;;;;;;;;3.00;3.00;;;;;;;;4994012;28;45963;-77
2021/09/10 02:20:10;;;;;;;;;3.00;2.25;;;;;;;;4991373;28;46370;-77
2021/09/10 02:22:35;;;;;;;;;4.00;4.00;;;;;;;;4991877;28;45349;-78
2021/09/10 02:25:00;;;;;;;;;3.75;2.75;;;;;;;;4991439;28;45498;-77
2021/09/10 02:27:26;;;;;;;;;2.00;1.00;;;;;;;;4992104;28;45250;-78
2021/09/10 02:29:51;;;;;;;;;4.25;3.25;;;;;;;;4993733;28;46296;-77
2021/09/10 02:32:16;;;;;;;;;2.00;2.00;;;;;;;;4991607;28;45514;-76
2021/09/10 02:34:41;;;;;;;;;3.00;3.00;;;;;;;;4991731;28;45437;-77
2021/09/10 02:37:07;;;;;;;;;3.50;3.50;;;;;;;;4991544;28;45392;-78
2021/09/10 02:39:32;;;;;;;;;2.00;2.00;;;;;;;;4991144;28;46264;-78
2021/09/10 02:41:57;;;;;;;;;1.50;1.50;;;;;;;;4975704;28;45432;-78
2021/09/10 02:44:22;;;;;;;;;4.00;3.00;;;;;;;;4992307;28;45434;-77
2021/09/10 02:46:47;;;;;;;;;3.50;2.75;;;;;;;;4989706;28;45479;-77
2021/09/10 02:49:13;;;;;;;;;2.00;2.00;;;;;;;;4972206;28;46906;-78
2021/09/10 02:51:38;;;;;;;;;4.00;3.00;;;;;;;;4991114;28;45236;-77
2021/09/10 02:54:03;;;;;;;;;2.25;2.25;;;;;;;;4991856;28;45890;-76
2021/09/10 02:56:28;;;;;;;;;2.50;2.50;;;;;;;;4992310;28;45327;-78
2021/09/10 02:58:54;;;;;;;;;2.00;2.00;;;;;;;;4990707;28;46298;-77
2021/09/10 03:01:19;;;;;;;;;2.75;2.00;;;;;;;;4991319;28;45428;-78
2021/09/10 03:03:44;;;;;;;;;2.50;2.50;;;;;;;;4991524;28;45410;-78
2021/09/10 03:06:09;;;;;;;;;1.50;1.50;;;;;;;;4991459;28;45551;-78
2021/09/10 03:08:35;;;;;;;;;2.50;2.50;;;;;;;;4993004;28;46576;-78
2021/09/10 03:11:00;;;;;;;;;4.75;3.00;;;;;;;;4991055;28;45387;-78
2021/09/10 03:13:26;;;;;;;;;3.00;3.00;;;;;;;;4990869;28;45461;-78
2021/09/10 03:15:51;;;;;;;;;8.00;4.50;;;;;;;;4989520;28;45508;-79
2021/09/10 03:18:16;;;;;;;;;5.25;3.50;;;;;;;;4990969;28;47096;-78
2021/09/10 03:20:43;;;;;;;;;5.00;4.25;;;;;;;;4993218;28;45355;-78
2021/09/10 03:23:08;;;;;;;;;2.00;2.00;;;;;;;;4990721;28;45494;-78
2021/09/10 03:25:33;;;;;;;;;4.00;3.00;;;;;;;;4989236;28;45286;-79
2021/09/10 03:27:58;;;;;;;;;2.75;2.75;;;;;;;;4971712;28;46278;-78
2021/09/10 03:30:24;;;;;;;;;5.25;5.00;;;;;;;;4991043;28;45429;-78
2021/09/10 03:32:49;;;;;;;;;4.50;4.50;;;;;;;;4993163;28;45473;-78
2021/09/10 03:35:14;;;;;;;;;3.25;3.25;;;;;;;;4990759;28;45276;-78
2021/09/10 03:37:40;;;;;;;;;5.00;4.25;;;;;;;;4990107;28;46330;-78
2021/09/10 03:40:06;;;;;;;;;3.75;3.50;;;;;;;;4990566;28;45299;-78
2021/09/10 03:42:31;;;;;;;;;3.00;3.00;;;;;;;;4990770;27;45289;-78
2021/09/10 03:44:57;;;;;;;;;5.00;4.00;;;;;;;;4994221;28;45504;-77
2021/09/10 03:47:22;;;;;;;;;5.75;5.75;;;;;;;;4990928;28;45304;-77
2021/09/10 03:49:47;;;;;;;;;4.50;4.50;;;;;;;;4988141;28;45223;-78
2021/09/10 03:52:12;;;;;;;;;2.75;2.75;;;;;;;;4990210;28;45584;-78
2021/09/10 03:54:37;;;;;;;;;8.00;8.00;;;;;;;;4990253;28;45529;-78
2021/09/10 03:57:03;;;;;;;;;5.75;5.25;;;;;;;;4991055;28;45549;-78
2021/09/10 03:59:28;;;;;;;;;0.00;0.00;;;;;;;;4991160;28;45440;-78
2021/09/10 04:01:53;;;;;;;;;4.50;4.00;;;;;;;;4990366;28;45371;-77
2021/09/10 04:04:19;;;;;;;;;4.00;4.00;;;;;;;;4988985;28;45549;-78
2021/09/10 04:06:44;;;;;;;;;6.00;5.00;;;;;;;;4988527;28;45486;-78
2021/09/10 04:09:09;;;;;;;;;7.75;6.00;;;;;;;;4990093;28;45352;-78
2021/09/10 04:11:36;;;;;;;;;5.25;5.25;;;;;;;;4990105;28;45425;-78
2021/09/10 04:14:01;;;;;;;;;6.00;6.00;;;;;;;;4989797;28;45514;-78
2021/09/10 04:16:27;;;;;;;;;6.75;6.00;;;;;;;;4989316;28;45947;-78
2021/09/10 04:18:52;;;;;;;;;6.25;4.00;;;;;;;;4989306;28;45456;-77
2021/09/10 04:21:18;;;;;;;;;5.00;5.00;;;;;;;;4989412;28;45499;-78
2021/09/10 04:23:43;;;;;;;;;6.00;5.00;;;;;;;;4992037;28;45371;-78
2021/09/10 04:26:08;;;;;;;;;6.00;6.00;;;;;;;;4992554;28;45993;-77
2021/09/10 04:28:33;;;;;;;;;7.25;6.00;;;;;;;;4992458;28;45447;-77
2021/09/10 04:30:58;;;;;;;;;6.00;6.00;;;;;;;;4974923;28;45397;-78
2021/09/10 04:33:24;;;;;;;;;7.75;7.75;;;;;;;;4992894;28;45430;-78
2021/09/10 04:35:49;;;;;;;;;5.50;5.50;;;;;;;;4994470;28;45328;-78
2021/09/10 04:38:15;;;;;;;;;5.25;4.25;;;;;;;;4992680;28;45486;-77
2021/09/10 04:40:40;;;;;;;;;7.75;7.75;;;;;;;;4992729;28;45405;-77
2021/09/10 04:43:05;;;;;;;;;5.00;4.00;;;;;;;;4990686;28;45425;-77
2021/09/10 04:45:30;;;;;;;;;4.25;4.25;;;;;;;;4990853;28;46414;-78
2021/09/10 04:47:56;;;;;;;;;5.00;3.75;;;;;;;;4993644;28;45457;-77
2021/09/10 04:50:21;;;;;;;;;11.75;7.00;;;;;;;;4992719;28;45390;-78
2021/09/10 04:52:46;;;;;;;;;3.75;3.75;;;;;;;;4991948;28;45414;-77
2021/09/10 04:55:11;;;;;;;;;4.00;4.00;;;;;;;;4991557;28;46369;-78
2021/09/10 04:57:37;;;;;;;;;4.75;4.75;;;;;;;;4991918;28;45423;-77
2021/09/10 05:00:03;;;;;;;;;5.00;5.00;;;;;;;;4993322;28;45428;-78
2021/09/10 05:02:28;;;;;;;;;5.25;5.00;;;;;;;;4993135;28;45414;-77
2021/09/10 05:04:53;;;;;;;;;5.25;5.25;;;;;;;;4991704;28;46287;-78
2021/09/10 05:07:19;;;;;;;;;4.50;4.50;;;;;;;;4974038;28;46052;-78
2021/09/10 05:09:44;;;;;;;;;7.00;5.75;;;;;;;;4974103;28;45499;-77
2021/09/10 05:12:09;;;;;;;;;5.25;5.25;;;;;;;;4992077;28;45370;-79
2021/09/10 05:14:35;;;;;;;;;7.75;5.00;;;;;;;;4991183;28;46142;-78
2021/09/10 05:17:00;;;;;;;;;6.50;6.50;;;;;;;;4991772;28;45485;-78
2021/09/10 05:19:25;;;;;;;;;6.00;6.00;;;;;;;;4991314;28;45378;-77
2021/09/10 05:21:50;;;;;;;;;5.50;4.75;;;;;;;;4990098;28;45651;-79
2021/09/10 05:24:15;;;;;;;;;6.25;6.00;;;;;;;;4991569;28;46080;-78
2021/09/10 05:26:41;;;;;;;;;6.00;6.00;;;;;;;;4993334;28;45755;-78
2021/09/10 05:29:06;;;;;;;;;6.25;5.25;;;;;;;;4970737;28;45462;-78
2021/09/10 05:31:31;;;;;;;;;7.00;4.75;;;;;;;;4991524;28;45524;-79
2021/09/10 05:33:57;;;;;;;;;5.75;4.75;;;;;;;;4991237;28;45507;-77
2021/09/10 05:36:22;;;;;;;;;8.75;6.75;;;;;;;;4972322;28;45426;-78
2021/09/10 05:38:47;;;;;;;;;4.50;4.25;;;;;;;;4993121;28;45394;-79
2021/09/10 05:41:12;;;;;;;;;9.00;5.00;;;;;;;;4991382;28;45281;-77
2021/09/10 05:43:38;;;;;;;;;5.25;5.25;;;;;;;;4990952;28;45308;-78
2021/09/10 05:46:03;;;;;;;;;4.00;4.00;;;;;;;;4973585;28;45366;-78
2021/09/10 05:48:28;;;;;;;;;5.25;5.25;;;;;;;;4989054;28;45475;-76
2021/09/10 05:50:54;;;;;;;;;8.50;6.50;;;;;;;;4993403;28;45483;-77
2021/09/10 05:53:19;;;;;;;;;6.00;6.00;;;;;;;;4990801;28;45496;-78
2021/09/10 05:55:44;;;;;;;;;9.00;6.25;;;;;;;;4991190;28;45428;-78
2021/09/10 05:58:10;;;;;;;;;7.25;6.50;;;;;;;;4991297;28;45479;-78
2021/09/10 06:00:36;;;;;;;;;8.75;7.25;;;;;;;;4989526;28;45337;-78
2021/09/10 06:03:01;;;;;;;;;8.75;8.00;;;;;;;;4991880;28;46389;-77
2021/09/10 06:05:27;;;;;;;;;10.75;8.25;;;;;;;;4990031;28;45211;-77
2021/09/10 06:07:52;;;;;;;;;9.50;7.50;;;;;;;;4972683;28;45595;-78
2021/09/10 06:10:18;;;;;;;;;5.50;5.50;;;;;;;;4991009;28;45325;-78
2021/09/10 06:12:44;;;;;;;;;10.00;7.25;;;;;;;;4990551;28;46046;-75
2021/09/10 06:15:10;;;;;;;;;8.00;8.00;;;;;;;;4990897;28;45582;-77
2021/09/10 06:17:35;;;;;;;;;6.75;5.50;;;;;;;;4972227;28;45385;-77
2021/09/10 06:20:00;;;;;;;;;6.75;6.50;;;;;;;;4990520;28;45607;-76
2021/09/10 06:22:27;;;;;;;;;4.75;4.75;;;;;;;;4990631;28;46311;-78
2021/09/10 06:24:53;;;;;;;;;6.25;6.25;;;;;;;;4990385;28;45511;-78
2021/09/10 06:27:18;;;;;;;;;6.25;4.00;;;;;;;;4990942;28;45323;-79
2021/09/10 06:29:43;;;;;;;;;8.50;8.50;;;;;;;;4992252;28;45443;-77
2021/09/10 06:32:08;;;;;;;;;9.50;5.00;;;;;;;;4990179;28;46161;-78
2021/09/10 06:34:34;;;;;;;;;7.50;7.50;;;;;;;;4989922;28;45444;-78
2021/09/10 06:36:59;;;;;;;;;15.50;11.00;;;;;;;;4990158;28;45484;-78
2021/09/10 06:39:24;;;;;;;;;7.25;7.25;;;;;;;;4988904;28;45449;-78
2021/09/10 06:41:50;;;;;;;;;9.00;6.50;;;;;;;;4991862;28;46140;-77
2021/09/10 06:44:15;;;;;;;;;12.00;7.00;;;;;;;;4988586;28;45497;-79
2021/09/10 06:46:40;;;;;;;;;18.75;13.75;;;;;;;;4989310;28;45410;-77
2021/09/10 06:49:05;;;;;;;;;7.25;7.25;;;;;;;;4988330;28;45593;-79
2021/09/10 06:51:31;;;;;;;;;13.50;12.00;;;;;;;;4989601;28;46442;-78
2021/09/10 06:53:56;;;;;;;;;9.50;9.25;;;;;;;;4973794;28;45432;-79
2021/09/10 06:56:21;;;;;;;;;7.75;6.50;;;;;;;;4990149;28;45568;-79
2021/09/10 06:58:47;;;;;;;;;7.00;7.00;;;;;;;;4989495;28;45487;-78
2021/09/10 07:01:12;;;;;;;;;7.00;5.50;;;;;;;;4989516;28;46074;-78
2021/09/10 07:03:37;;;;;;;;;7.50;7.50;;;;;;;;4989755;28;45532;-79
2021/09/10 07:06:03;;;;;;;;;8.50;5.00;;;;;;;;4991038;28;45246;-78
2021/09/10 07:08:28;;;;;;;;;4.75;4.75;;;;;;;;4991244;28;45413;-78
2021/09/10 07:10:54;;;;;;;;;11.25;9.50;;;;;;;;4989840;28;46471;-79
2021/09/10 07:13:20;;;;;;;;;7.00;6.75;;;;;;;;4990209;28;45284;-77
2021/09/10 07:15:45;;;;;;;;;10.25;7.25;;;;;;;;4989460;28;45500;-78
2021/09/10 07:18:10;;;;;;;;;10.00;5.25;;;;;;;;4990778;28;45902;-78
2021/09/10 07:20:35;;;;;;;;;5.75;5.50;;;;;;;;4989498;28;45491;-78
2021/09/10 07:23:01;;;;;;;;;7.25;6.75;;;;;;;;4988688;28;45568;-78
2021/09/10 07:25:26;;;;;;;;;4.75;4.75;;;;;;;;4989577;28;45577;-78
2021/09/10 07:27:51;;;;;;;;;4.00;4.00;;;;;;;;4989546;28;45394;-77
2021/09/10 07:30:17;;;;;;;;;8.75;7.50;;;;;;;;4989585;28;46561;-79
2021/09/10 07:32:42;;;;;;;;;5.00;5.00;;;;;;;;4991742;28;45456;-78
2021/09/10 07:35:07;;;;;;;;;5.50;5.00;;;;;;;;4989487;28;45386;-77
2021/09/10 07:37:33;;;;;;;;;7.75;6.25;;;;;;;;4971872;28;45499;-79
2021/09/10 07:39:59;;;;;;;;;6.75;5.50;;;;;;;;4989519;28;47292;-79
2021/09/10 07:42:24;;;;;;;;;9.75;7.00;;;;;;;;4989780;28;45447;-79
2021/09/10 07:44:49;;;;;;;;;9.00;7.50;;;;;;;;4991720;28;45381;-77
2021/09/10 07:47:15;;;;;;;;;12.25;9.25;;;;;;;;4991409;28;45498;-78
2021/09/10 07:49:41;;;;;;;;;2.75;2.75;;;;;;;;4989709;28;45625;-80
2021/09/10 07:52:06;;;;;;;;;5.50;4.25;;;;;;;;4989855;28;45878;-78
2021/09/10 07:54:31;;;;;;;;;8.50;7.25;;;;;;;;4990618;28;45809;-79
2021/09/10 07:56:57;;;;;;;;;6.50;6.50;;;;;;;;4992207;28;45228;-78
2021/09/10 07:59:22;;;;;;;;;11.50;10.25;;;;;;;;4987450;28;45519;-78
2021/09/10 08:01:47;;;;;;;;;8.50;8.25;;;;;;;;4990168;28;45577;-78
2021/09/10 08:04:12;;;;;;;;;7.75;7.00;;;;;;;;4992575;28;45196;-79
2021/09/10 08:06:38;;;;;;;;;11.00;9.50;;;;;;;;4992748;28;45563;-79
2021/09/10 08:09:04;;;;;;;;;6.50;6.25;;;;;;;;4994499;28;47314;-79
2021/09/10 08:11:30;;;;;;;;;8.50;6.25;;;;;;;;4992436;28;45255;-80
2021/09/10 08:13:56;;;;;;;;;8.50;8.25;;;;;;;;4991360;28;45330;-79
2021/09/10 08:16:21;;;;;;;;;9.67;5.33;;;;;;;;4973803;28;45445;-79
2021/09/10 08:18:46;;;;;;;;;8.25;7.00;;;;;;;;4991100;28;47205;-79
2021/09/10 08:21:14;;;;;;;;;4.75;4.75;;;;;;;;4990264;28;45320;-76
2021/09/10 08:23:39;;;;;;;;;4.00;3.00;;;;;;;;4991558;28;45455;-79
2021/09/10 08:26:05;;;;;;;;;6.25;6.25;;;;;;;;4971728;28;45527;-79
2021/09/10 08:28:30;;;;;;;;;4.00;2.00;;;;;;;;4989024;28;45405;-79
2021/09/10 08:30:55;;;;;;;;;7.50;5.50;;;;;;;;4988890;28;45357;-78
2021/09/10 08:33:21;;;;;;;;;5.00;5.00;;;;;;;;4989432;28;45454;-79
2021/09/10 08:35:46;;;;;;;;;8.00;8.00;;;;;;;;4990768;28;45455;-79
2021/09/10 08:38:11;;;;;;;;;7.00;6.00;;;;;;;;4987456;28;46074;-79
2021/09/10 08:40:36;;;;;;;;;4.67;4.67;;;;;;;;4986953;28;45593;-75
2021/09/10 08:43:02;;;;;;;;;4.00;4.00;;;;;;;;4989327;28;45382;-78
2021/09/10 08:45:28;;;;;;;;;4.00;4.00;;;;;;;;4971080;28;45573;-79
2021/09/10 08:47:53;;;;;;;;;4.00;4.00;;;;;;;;4990564;28;45974;-79
2021/09/10 08:50:19;;;;;;;;;5.75;5.75;;;;;;;;4988874;28;45374;-77
2021/09/10 08:52:44;;;;;;;;;3.00;3.00;;;;;;;;4988347;28;45407;-78
2021/09/10 08:55:10;;;;;;;;;4.75;4.75;;;;;;;;4988133;28;45423;-78
2021/09/10 08:57:36;;;;;;;;;11.75;7.00;;;;;;;;4988279;28;45457;-80
2021/09/10 09:00:07;;;;;;;;;5.50;5.50;;;;;;;;4971462;28;45358;-78
2021/09/10 09:02:33;;;;;;;;;5.75;4.25;;;;;;;;4989871;28;45228;-78
2021/09/10 09:04:58;;;;;;;;;4.50;4.50;;;;;;;;4987999;28;45426;-78
2021/09/10 09:07:25;;;;;;;;;4.00;4.00;;;;;;;;4987951;28;46989;-78
2021/09/10 09:09:50;;;;;;;;;6.00;6.00;;;;;;;;4970153;28;46205;-79
2021/09/10 09:12:29;;;;;;;;;3.75;3.75;;;;;;;;4991702;28;45418;-79
2021/09/10 09:14:55;;;;;;;;;8.75;7.75;;;;;;;;4990179;28;45483;-78
2021/09/10 09:17:28;;;;;;;;;4.25;4.25;;;;;;;;4990217;28;46074;-78
2021/09/10 09:20:20;;;;;;;;;6.75;5.50;;;;;;;;4990059;28;45353;-78
2021/09/10 09:22:54;;;;;;;;;5.50;4.25;;;;;;;;4988037;28;45609;-78
2021/09/10 09:25:21;;;;;;;;;3.75;3.75;;;;;;;;4990139;28;45655;-78
2021/09/10 09:27:47;;;;;;;;;7.75;6.00;;;;;;;;4990924;28;46189;-79
2021/09/10 09:30:12;;;;;;;;;7.00;5.75;;;;;;;;4991448;28;45284;-79
2021/09/10 09:32:47;;;;;;;;;4.00;4.00;;;;;;;;4993280;28;45424;-79
2021/09/10 09:35:12;;;;;;;;;6.50;5.50;;;;;;;;4973565;28;45311;-80
2021/09/10 09:37:38;;;;;;;;;5.00;5.00;;;;;;;;4990721;28;45457;-79
2021/09/10 09:40:04;;;;;;;;;10.75;9.25;;;;;;;;4990393;28;45556;-78
2021/09/10 09:42:31;;;;;;;;;6.00;5.75;;;;;;;;4990863;28;45485;-78
2021/09/10 09:45:13;;;;;;;;;3.75;3.00;;;;;;;;4992591;28;45375;-77
2021/09/10 09:47:38;;;;;;;;;4.00;4.00;;;;;;;;4991096;28;45512;-77
2021/09/10 09:50:08;;;;;;;;;5.00;5.00;;;;;;;;4991144;28;45321;-79
2021/09/10 09:52:33;;;;;;;;;5.00;5.00;;;;;;;;4990401;28;45285;-79
2021/09/10 09:54:59;;;;;;;;;6.25;4.75;;;;;;;;4989266;28;45557;-79
2021/09/10 09:57:24;;;;;;;;;7.25;6.00;;;;;;;;4975412;28;45373;-79
2021/09/10 09:59:50;;;;;;;;;6.00;5.00;;;;;;;;4993012;28;45427;-79
2021/09/10 10:02:16;;;;;;;;;3.00;3.00;;;;;;;;4990311;28;45466;-79
2021/09/10 10:04:41;;;;;;;;;5.75;4.75;;;;;;;;4990532;28;45672;-78
2021/09/10 10:07:08;;;;;;;;;5.25;5.00;;;;;;;;4990335;28;45758;-79
2021/09/10 10:09:34;;;;;;;;;6.25;5.00;;;;;;;;4990034;28;45534;-79
2021/09/10 10:12:01;;;;;;;;;4.25;3.25;;;;;;;;4991894;28;45397;-77
2021/09/10 10:14:31;;;;;;;;;5.25;4.00;;;;;;;;4991400;28;45644;-77
2021/09/10 10:16:56;;;;;;;;;3.67;2.33;;;;;;;;4989274;28;46320;-79
2021/09/10 10:19:21;;;;;;;;;4.00;4.00;;;;;;;;4972139;28;45500;-78
2021/09/10 10:21:48;;;;;;;;;4.00;4.00;;;;;;;;4989922;28;45459;-78
2021/09/10 10:24:34;;;;;;;;;7.00;7.00;;;;;;;;4993001;28;45397;-79
2021/09/10 10:27:19;;;;;;;;;5.50;4.50;;;;;;;;4987663;28;47092;-79
2021/09/10 10:29:44;;;;;;;;;2.33;2.00;;;;;;;;4992007;27;45355;-80
2021/09/10 10:32:09;;;;;;;;;2.00;2.00;;;;;;;;4989825;28;45422;-79
2021/09/10 10:34:36;;;;;;;;;2.00;2.00;;;;;;;;4988664;28;45490;-79
2021/09/10 10:37:01;;;;;;;;;5.00;4.00;;;;;;;;4988101;28;46117;-80
2021/09/10 10:39:30;;;;;;;;;3.00;3.00;;;;;;;;4990130;28;45400;-76
2021/09/10 10:42:03;;;;;;;;;2.00;2.00;;;;;;;;4988742;28;45333;-77
2021/09/10 10:44:35;;;;;;;;;2.33;2.33;;;;;;;;4990645;28;45364;-79
2021/09/10 10:47:03;;;;;;;;;5.50;5.00;;;;;;;;4988957;28;46581;-78
2021/09/10 10:49:35;;;;;;;;;3.67;2.00;;;;;;;;4989657;28;45493;-79
2021/09/10 10:52:00;;;;;;;;;8.00;6.67;;;;;;;;4990072;28;45873;-78
2021/09/10 10:54:27;;;;;;;;;9.50;9.50;;;;;;;;4989926;28;45494;-79
2021/09/10 10:56:52;;;;;;;;;2.33;2.33;;;;;;;;4991571;28;46866;-78
2021/09/10 10:59:19;;;;;;;;;3.33;2.33;;;;;;;;4990321;28;45492;-77
2021/09/10 11:02:03;;;;;;;;;2.67;2.67;;;;;;;;4989708;28;45402;-76
2021/09/10 11:04:28;;;;;;;;;5.00;3.67;;;;;;;;4990106;28;45401;-77
2021/09/10 11:06:55;;;;;;;;;2.00;2.00;;;;;;;;4989361;28;46238;-79
2021/09/10 11:09:21;;;;;;;;;1.67;1.67;;;;;;;;4990012;28;45350;-78
2021/09/10 11:11:53;;;;;;;;;2.00;2.00;;;;;;;;4992181;28;45439;-77
2021/09/10 11:14:28;;;;;;;;;4.00;4.00;;;;;;;;4988332;28;45265;-79
2021/09/10 11:16:54;;;;;;;;;3.00;3.00;;;;;;;;4988073;28;46131;-79
2021/09/10 11:19:20;;;;;;;;;3.00;3.00;;;;;;;;4989614;28;45372;-79
2021/09/10 11:21:59;;;;;;;;;4.00;4.00;;;;;;;;4989265;28;45336;-77
2021/09/10 11:24:28;;;;;;;;;3.00;3.00;;;;;;;;4989602;28;45405;-77
2021/09/10 11:26:56;;;;;;;;;4.67;4.67;;;;;;;;4987896;28;46235;-78
2021/09/10 11:29:21;;;;;;;;;5.33;5.33;;;;;;;;4988668;28;45292;-75
2021/09/10 11:31:47;;;;;;;;;7.00;7.00;;;;;;;;4989591;28;45470;-75
2021/09/10 11:34:32;;;;;;;;;9.75;9.00;;;;;;;;4989589;28;45457;-78
2021/09/10 11:37:01;;;;;;;;;4.00;4.00;;;;;;;;4989093;28;45605;-77
2021/09/10 11:39:26;;;;;;;;;2.67;2.67;;;;;;;;4973938;28;45340;-80
2021/09/10 11:41:51;;;;;;;;;1.00;1.00;;;;;;;;4991519;28;45451;-78
2021/09/10 11:44:16;;;;;;;;;4.00;3.00;;;;;;;;4989836;28;45653;-76
2021/09/10 11:46:44;;;;;;;;;3.00;3.00;;;;;;;;4971351;28;47552;-78
2021/09/10 11:49:09;;;;;;;;;3.67;3.67;;;;;;;;4989008;28;45289;-79
2021/09/10 11:51:36;;;;;;;;;5.00;5.00;;;;;;;;4988207;28;45194;-78
2021/09/10 11:54:07;;;;;;;;;4.00;4.00;;;;;;;;4990780;28;45530;-78
2021/09/10 11:56:34;;;;;;;;;7.67;5.33;;;;;;;;4972876;28;46232;-77
2021/09/10 11:58:59;;;;;;;;;3.67;3.67;;;;;;;;4988727;28;45449;-77
2021/09/10 12:01:25;;;;;;;;;6.00;3.00;;;;;;;;4989227;28;45674;-78
2021/09/10 12:03:58;;;;;;;;;3.33;3.33;;;;;;;;4989089;28;45528;-77
2021/09/10 12:06:24;;;;;;;;;3.33;3.33;;;;;;;;4988756;28;45285;-77
2021/09/10 12:09:08;;;;;;;;;4.00;4.00;;;;;;;;4990668;28;45584;-78
2021/09/10 12:11:34;;;;;;;;;2.33;2.33;;;;;;;;4990703;28;45259;-77
2021/09/10 12:13:59;;;;;;;;;4.00;4.00;;;;;;;;4988643;28;45552;-78
2021/09/10 12:16:24;;;;;;;;;2.67;2.67;;;;;;;;4988892;28;46351;-75
2021/09/10 12:19:00;;;;;;;;;1.67;1.00;;;;;;;;4988549;28;45219;-77
2021/09/10 12:21:32;;;;;;;;;6.00;4.33;;;;;;;;4974297;28;45244;-78
2021/09/10 12:24:10;;;;;;;;;4.67;4.33;;;;;;;;4987764;28;45199;-79
2021/09/10 12:26:47;;;;;;;;;2.67;2.67;;;;;;;;4990491;28;46460;-79
2021/09/10 12:29:17;;;;;;;;;3.00;3.00;;;;;;;;4988590;28;45667;-79
2021/09/10 12:31:43;;;;;;;;;2.33;2.33;;;;;;;;4969614;28;45553;-80
2021/09/10 12:34:08;;;;;;;;;2.00;2.00;;;;;;;;4987235;28;45406;-80
2021/09/10 12:36:33;;;;;;;;;3.33;3.33;;;;;;;;4986840;28;46314;-81
2021/09/10 12:38:58;;;;;;;;;3.00;3.00;;;;;;;;4990280;28;45439;-82
2021/09/10 12:41:24;;;;;;;;;5.00;5.00;;;;;;;;4971842;28;45338;-80
2021/09/10 12:43:51;;;;;;;;;3.67;2.33;;;;;;;;4988910;28;45487;-79
2021/09/10 12:46:16;;;;;;;;;4.00;3.33;;;;;;;;4990693;28;46252;-78
2021/09/10 12:48:41;;;;;;;;;2.00;2.00;;;;;;;;4991423;28;46710;-78
2021/09/10 12:51:10;;;;;;;;;3.00;3.00;;;;;;;;4992378;28;45351;-80
2021/09/10 12:53:35;;;;;;;;;2.00;2.00;;;;;;;;4993111;28;45516;-80
2021/09/10 12:56:00;;;;;;;;;2.00;2.00;;;;;;;;4990796;28;47079;-80
2021/09/10 12:58:25;;;;;;;;;1.67;1.67;;;;;;;;4990936;28;45473;-80
2021/09/10 13:00:51;;;;;;;;;2.00;2.00;;;;;;;;4991193;28;45374;-78
2021/09/10 13:03:16;;;;;;;;;3.00;3.00;;;;;;;;4990892;28;45345;-79
2021/09/10 13:05:41;;;;;;;;;2.00;2.00;;;;;;;;4993596;28;45410;-78
2021/09/10 13:08:07;;;;;;;;;1.67;1.67;;;;;;;;4991374;28;45558;-78
2021/09/10 13:10:32;;;;;;;;;2.67;2.00;;;;;;;;4991701;28;45356;-79
2021/09/10 13:12:57;;;;;;;;;1.67;1.67;;;;;;;;4972423;28;45599;-79
2021/09/10 13:15:24;;;;;;;;;4.00;4.00;;;;;;;;4991348;28;46111;-78
2021/09/10 13:17:52;;;;;;;;;6.00;3.25;;;;;;;;4992956;28;45596;-75
2021/09/10 13:20:18;;;;;;;;;2.25;2.25;;;;;;;;4990995;28;45470;-77
2021/09/10 13:22:43;;;;;;;;;1.67;1.67;;;;;;;;4990952;28;45525;-77
2021/09/10 13:25:08;;;;;;;;;4.75;4.75;;;;;;;;4990840;28;46511;-76
2021/09/10 13:27:34;;;;;;;;;3.00;3.00;;;;;;;;4990453;28;45401;-78
2021/09/10 13:29:59;;;;;;;;;4.00;4.00;;;;;;;;4992493;28;45485;-77
2021/09/10 13:32:25;;;;;;;;;4.67;4.00;;;;;;;;4991308;28;45485;-77
2021/09/10 13:34:50;;;;;;;;;4.00;4.00;;;;;;;;4990577;28;46067;-76
2021/09/10 13:37:15;;;;;;;;;6.33;5.67;;;;;;;;4972774;28;45386;-77
2021/09/10 13:39:42;;;;;;;;;3.33;3.33;;;;;;;;4972926;28;45502;-78
2021/09/10 13:42:07;;;;;;;;;6.33;5.00;;;;;;;;4991493;28;45405;-77
2021/09/10 13:44:33;;;;;;;;;4.00;4.00;;;;;;;;4992225;28;46422;-75
2021/09/10 13:46:58;;;;;;;;;4.33;3.67;;;;;;;;4989973;28;45473;-77
2021/09/10 13:49:23;;;;;;;;;3.00;3.00;;;;;;;;4989196;28;45430;-79
2021/09/10 13:51:49;;;;;;;;;2.33;2.33;;;;;;;;4989396;28;45247;-71
2021/09/10 13:54:14;;;;;;;;;5.33;4.33;;;;;;;;4986642;27;45296;-72
2021/09/10 13:56:39;;;;;;;;;3.00;3.00;;;;;;;;4990616;28;45490;-72
2021/09/10 13:59:04;;;;;;;;;3.00;1.67;;;;;;;;4989194;28;45438;-72
2021/09/10 14:01:30;;;;;;;;;2.00;2.00;;;;;;;;4988371;28;45461;-71
2021/09/10 14:03:55;;;;;;;;;3.00;3.00;;;;;;;;4987984;28;45972;-72
2021/09/10 14:06:21;;;;;;;;;1.00;1.00;;;;;;;;4988630;28;45428;-72
2021/09/10 14:08:46;;;;;;;;;3.00;2.00;;;;;;;;4990747;28;45495;-72
2021/09/10 14:11:11;;;;;;;;;2.00;2.00;;;;;;;;4988804;28;45489;-72
2021/09/10 14:13:37;;;;;;;;;2.00;2.00;;;;;;;;4988831;28;45512;-73
2021/09/10 14:16:02;;;;;;;;;2.00;1.00;;;;;;;;4970596;28;45544;-73
2021/09/10 14:18:28;;;;;;;;;2.33;2.00;;;;;;;;4989095;28;45334;-73
2021/09/10 14:20:53;;;;;;;;;4.00;4.00;;;;;;;;4986656;28;45288;-73
2021/09/10 14:23:18;;;;;;;;;2.00;2.00;;;;;;;;4988231;28;46040;-72
2021/09/10 14:25:44;;;;;;;;;3.00;1.67;;;;;;;;4988791;28;45486;-73
2021/09/10 14:28:09;;;;;;;;;1.33;1.33;;;;;;;;4987667;28;45322;-73
2021/09/10 14:30:34;;;;;;;;;2.67;2.67;;;;;;;;4988467;28;45325;-72
2021/09/10 14:33:00;;;;;;;;;5.67;4.00;;;;;;;;4990549;27;47717;-72
2021/09/10 14:35:25;;;;;;;;;2.00;2.00;;;;;;;;4988038;28;45399;-71
2021/09/10 14:37:51;;;;;;;;;3.33;3.33;;;;;;;;4989498;28;45509;-71